Time;durP1;ratioP1;P1;durP2;ratioP2;P2;SDS_P1;SDS_P2;PMS_P1;PMS_P2;Temp;Humidity;BMP_temperature;BMP_pressure;BME280_temperature;BME280_humidity;BME280_pressure;Samples;Min_cycle;Max_cycle;Signal;HPM_P1;HPM_P2
2022/11/08 00:01:43;;;;;;;1.92;1.50;;;3.10;99.90;;;;;;5050492;28;20036;-77
2022/11/08 00:04:11;;;;;;;8.07;2.35;;;3.10;99.90;;;;;;5047517;28;20091;-77
2022/11/08 00:14:50;;;;;;;8.55;4.28;;;3.30;99.90;;;;;;5031045;28;20584;-77
2022/11/08 00:17:18;;;;;;;3.00;2.67;;;3.60;99.90;;;;;;5030220;28;20071;-76
2022/11/08 00:19:44;;;;;;;9.88;3.60;;;3.30;99.90;;;;;;5030266;28;20060;-78
2022/11/08 00:22:11;;;;;;;11.20;5.30;;;3.50;99.90;;;;;;5033436;28;20041;-78
2022/11/08 00:24:36;;;;;;;8.32;2.97;;;3.40;99.90;;;;;;5032875;28;20026;-77
2022/11/08 00:27:05;;;;;;;6.75;4.07;;;3.30;99.90;;;;;;5044820;28;20021;-78
2022/11/08 00:29:33;;;;;;;3.83;2.20;;;3.30;99.90;;;;;;5051792;28;20021;-77
2022/11/08 00:31:58;;;;;;;2.90;2.00;;;3.20;99.90;;;;;;5052292;28;20902;-78
2022/11/08 00:34:24;;;;;;;4.25;2.35;;;3.40;99.90;;;;;;5033616;28;20111;-78
2022/11/08 00:36:52;;;;;;;5.18;2.88;;;3.10;99.90;;;;;;5052328;28;20024;-77
2022/11/08 00:39:18;;;;;;;3.47;1.40;;;4.60;99.90;;;;;;5033979;28;20037;-76
2022/11/08 00:41:44;;;;;;;2.38;2.20;;;3.60;99.90;;;;;;5051933;28;20018;-78
2022/11/08 00:44:10;;;;;;;1.88;1.75;;;4.40;99.90;;;;;;5039407;28;20091;-76
2022/11/08 00:46:37;;;;;;;3.72;2.53;;;4.80;99.90;;;;;;5014306;28;20032;-77
2022/11/08 00:49:04;;;;;;;5.50;2.17;;;3.50;99.90;;;;;;5013774;28;20026;-77
2022/11/08 00:51:30;;;;;;;2.78;1.70;;;4.10;99.90;;;;;;5031211;28;20048;-77
2022/11/08 00:53:56;;;;;;;5.05;2.08;;;3.20;99.90;;;;;;5031784;28;20018;-77
2022/11/08 00:56:22;;;;;;;3.28;2.05;;;3.50;99.90;;;;;;5029728;28;20484;-77
2022/11/08 00:58:48;;;;;;;5.78;2.45;;;3.80;99.90;;;;;;5029673;28;20507;-77
2022/11/08 01:01:18;;;;;;;17.52;6.38;;;3.10;99.90;;;;;;5030099;28;20096;-78
2022/11/08 01:03:45;;;;;;;9.15;5.50;;;3.40;99.90;;;;;;5028701;28;20033;-76
2022/11/08 01:06:13;;;;;;;8.88;4.03;;;3.20;99.90;;;;;;5027017;28;20320;-77
2022/11/08 01:08:39;;;;;;;8.30;4.32;;;3.30;99.90;;;;;;5012229;28;20390;-75
2022/11/08 01:11:08;;;;;;;4.30;2.83;;;3.40;99.90;;;;;;5011886;28;20053;-75
2022/11/08 01:13:34;;;;;;;9.80;3.23;;;3.20;99.90;;;;;;5011448;28;20029;-77
2022/11/08 01:16:08;;;;;;;3.85;2.15;;;3.60;99.90;;;;;;5011487;28;20647;-77
2022/11/08 01:18:34;;;;;;;17.38;7.57;;;3.00;99.90;;;;;;5029502;28;20085;-78
2022/11/08 01:21:02;;;;;;;10.98;6.10;;;3.10;99.90;;;;;;5044188;28;20442;-78
2022/11/08 01:23:27;;;;;;;8.75;6.95;;;2.90;99.90;;;;;;5049520;28;20454;-77
2022/11/08 01:25:53;;;;;;;20.98;10.57;;;2.90;99.90;;;;;;5030806;28;20033;-77
2022/11/08 01:28:18;;;;;;;16.65;8.27;;;4.00;99.90;;;;;;5048143;28;20469;-77
2022/11/08 01:30:44;;;;;;;5.07;3.15;;;4.50;99.90;;;;;;5049258;28;20033;-76
2022/11/08 01:33:11;;;;;;;7.50;4.10;;;3.60;99.90;;;;;;5030662;28;20031;-76
2022/11/08 01:35:37;;;;;;;10.95;4.80;;;2.90;99.90;;;;;;5031429;28;20049;-75
2022/11/08 01:38:04;;;;;;;6.28;2.38;;;3.20;99.90;;;;;;5030589;28;20501;-77
2022/11/08 01:40:31;;;;;;;2.10;1.77;;;4.30;99.90;;;;;;5029198;28;20043;-77
2022/11/08 01:42:57;;;;;;;2.17;1.65;;;3.10;99.90;;;;;;5032703;28;20378;-76
2022/11/08 01:46:13;;;;;;;3.35;2.30;;;3.30;99.90;;;;;;5049543;28;20025;-77
2022/11/08 01:48:45;;;;;;;7.53;3.72;;;3.10;99.90;;;;;;5030282;28;20215;-76
2022/11/08 01:51:14;;;;;;;7.47;3.78;;;3.10;99.90;;;;;;5030759;28;20381;-75
2022/11/08 01:53:40;;;;;;;5.43;3.67;;;3.10;99.90;;;;;;5048947;28;20096;-76
2022/11/08 01:56:10;;;;;;;2.08;1.88;;;3.00;99.90;;;;;;5049072;28;20060;-77
2022/11/08 01:58:38;;;;;;;2.55;2.13;;;3.10;99.90;;;;;;5048067;28;20097;-77
2022/11/08 02:01:03;;;;;;;2.70;2.10;;;3.00;99.90;;;;;;5047988;28;20025;-76
2022/11/08 02:03:32;;;;;;;5.18;2.08;;;2.80;99.90;;;;;;5049903;28;20021;-76
2022/11/08 02:06:00;;;;;;;1.30;1.20;;;2.70;99.90;;;;;;5050380;28;20381;-74
2022/11/08 02:08:41;;;;;;;2.42;1.50;;;2.80;99.90;;;;;;5051268;28;20541;-76
2022/11/08 02:11:10;;;;;;;2.10;1.25;;;2.70;99.90;;;;;;5052098;28;20025;-75
2022/11/08 02:13:40;;;;;;;6.07;1.50;;;3.40;99.90;;;;;;5050061;28;20055;-75
2022/11/08 02:16:11;;;;;;;4.63;1.52;;;4.90;99.90;;;;;;5051230;28;20025;-75
2022/11/08 02:18:38;;;;;;;2.55;1.50;;;3.50;99.90;;;;;;5054987;28;20029;-75
2022/11/08 02:21:25;;;;;;;2.10;1.63;;;2.80;99.90;;;;;;5055658;28;20113;-76
2022/11/08 02:23:55;;;;;;;1.95;1.08;;;2.70;99.90;;;;;;5055819;28;20027;-76
2022/11/08 02:26:23;;;;;;;1.55;1.42;;;2.60;99.90;;;;;;5036791;28;20029;-77
2022/11/08 02:28:50;;;;;;;1.77;1.67;;;2.70;99.90;;;;;;5035512;28;20119;-75
2022/11/08 02:31:17;;;;;;;2.10;1.45;;;2.90;99.90;;;;;;5053124;28;20542;-75
2022/11/08 02:33:44;;;;;;;1.80;1.58;;;3.80;99.90;;;;;;5036811;28;20482;-76
2022/11/08 02:36:17;;;;;;;2.25;1.48;;;3.10;99.90;;;;;;5035801;28;20024;-78
2022/11/08 02:38:52;;;;;;;2.63;1.52;;;3.20;99.90;;;;;;5053272;28;20091;-76
2022/11/08 02:41:18;;;;;;;1.40;1.30;;;3.60;99.90;;;;;;5053323;28;20021;-75
2022/11/08 02:43:43;;;;;;;3.55;2.10;;;3.50;99.90;;;;;;5053613;28;20025;-77
2022/11/08 02:46:09;;;;;;;1.77;1.67;;;3.80;99.90;;;;;;5053393;28;20021;-75
2022/11/08 02:48:35;;;;;;;2.17;1.23;;;2.80;99.90;;;;;;5053001;28;20485;-76
2022/11/08 02:51:01;;;;;;;1.70;1.40;;;2.90;99.90;;;;;;5054077;28;20041;-76
2022/11/08 02:53:26;;;;;;;1.85;1.25;;;3.00;99.90;;;;;;5053366;28;20083;-75
2022/11/08 02:55:52;;;;;;;1.13;1.10;;;3.80;99.90;;;;;;5053692;28;20036;-75
2022/11/08 02:58:18;;;;;;;2.05;1.25;;;3.60;99.90;;;;;;5036554;28;20029;-75
2022/11/08 03:00:43;;;;;;;3.53;1.60;;;2.90;99.90;;;;;;5053442;28;20032;-76
2022/11/08 03:03:09;;;;;;;1.33;1.23;;;2.70;99.90;;;;;;5053991;28;20020;-75
2022/11/08 03:05:34;;;;;;;1.52;1.38;;;2.70;99.90;;;;;;5055418;28;20473;-77
2022/11/08 03:08:00;;;;;;;0.80;0.80;;;3.30;99.90;;;;;;5054926;28;20610;-74
2022/11/08 03:10:27;;;;;;;1.27;1.17;;;4.50;99.90;;;;;;5054686;28;20104;-75
2022/11/08 03:13:00;;;;;;;1.67;1.20;;;4.00;99.90;;;;;;5037481;28;20103;-76
2022/11/08 03:15:26;;;;;;;2.50;1.15;;;2.30;99.90;;;;;;5036623;28;20086;-75
2022/11/08 03:17:54;;;;;;;1.42;1.30;;;3.00;99.90;;;;;;5035237;28;20025;-74
2022/11/08 03:20:19;;;;;;;0.82;0.82;;;2.40;99.90;;;;;;5053883;28;20029;-74
2022/11/08 03:22:45;;;;;;;1.13;1.13;;;2.30;99.90;;;;;;5034845;28;20087;-76
2022/11/08 03:25:11;;;;;;;1.90;1.38;;;2.20;99.90;;;;;;5035073;28;20025;-78
2022/11/08 03:27:37;;;;;;;0.95;0.93;;;2.00;99.90;;;;;;5052746;28;20017;-74
2022/11/08 03:30:03;;;;;;;0.70;0.68;;;2.10;99.90;;;;;;5051806;28;20048;-75
2022/11/08 03:32:29;;;;;;;6.03;1.73;;;2.30;99.90;;;;;;5052114;28;20040;-75
2022/11/08 03:34:54;;;;;;;1.30;1.20;;;2.50;99.90;;;;;;5051908;28;20049;-74
2022/11/08 03:37:21;;;;;;;2.45;1.00;;;2.70;99.90;;;;;;5052339;28;20181;-75
2022/11/08 03:39:47;;;;;;;4.22;2.17;;;2.50;99.90;;;;;;5052498;28;20029;-75
2022/11/08 03:42:13;;;;;;;4.22;1.75;;;3.00;99.90;;;;;;5034211;28;20051;-75
2022/11/08 03:44:38;;;;;;;3.10;1.60;;;3.40;99.90;;;;;;5052367;28;20025;-75
2022/11/08 03:47:04;;;;;;;1.30;1.05;;;2.90;99.90;;;;;;5051758;28;20473;-76
2022/11/08 03:49:29;;;;;;;3.38;1.25;;;3.90;99.90;;;;;;5034216;28;20079;-78
2022/11/08 03:51:55;;;;;;;2.28;1.83;;;2.40;99.90;;;;;;5052000;28;20028;-75
2022/11/08 03:54:21;;;;;;;1.42;1.25;;;3.40;99.90;;;;;;5034114;28;20029;-76
2022/11/08 03:56:46;;;;;;;2.25;1.88;;;2.80;99.90;;;;;;5052051;28;20536;-76
2022/11/08 03:59:12;;;;;;;1.70;1.17;;;2.30;99.90;;;;;;5034034;28;20039;-76
2022/11/08 04:01:38;;;;;;;3.55;1.63;;;2.40;99.90;;;;;;5034130;28;20021;-75
2022/11/08 04:04:05;;;;;;;1.70;1.60;;;2.50;99.90;;;;;;5051677;28;20037;-78
2022/11/08 04:06:31;;;;;;;1.45;1.15;;;3.10;99.90;;;;;;5051941;28;20017;-76
2022/11/08 04:08:57;;;;;;;1.98;1.83;;;3.00;99.90;;;;;;5051793;28;20025;-76
2022/11/08 04:16:55;;;;;;;2.00;1.80;;;2.50;99.90;;;;;;5051832;28;20066;-75
2022/11/08 04:22:06;;;;;;;2.22;1.50;;;2.80;99.90;;;;;;5052430;28;20024;-77
2022/11/08 04:24:32;;;;;;;4.82;1.83;;;2.70;99.90;;;;;;5053251;28;20033;-76
2022/11/08 04:26:57;;;;;;;1.63;1.38;;;2.60;99.90;;;;;;5053146;28;20032;-77
2022/11/08 04:29:23;;;;;;;1.77;1.42;;;4.10;99.90;;;;;;5052398;28;20469;-74
2022/11/08 04:31:50;;;;;;;3.15;2.35;;;3.10;99.90;;;;;;5051461;28;20029;-76
2022/11/08 04:34:15;;;;;;;1.60;1.50;;;2.70;99.90;;;;;;5050850;28;20041;-74
2022/11/08 04:36:41;;;;;;;1.45;1.25;;;4.10;99.90;;;;;;5051472;28;20098;-77
2022/11/08 04:39:07;;;;;;;1.75;1.38;;;3.30;99.90;;;;;;5052235;28;20489;-77
2022/11/08 04:41:33;;;;;;;3.17;1.65;;;;;;;;;;5051627;28;20056;-74
2022/11/08 04:43:59;;;;;;;7.50;2.60;;;2.70;99.90;;;;;;5051179;28;20276;-75
2022/11/08 04:46:27;;;;;;;1.50;1.40;;;3.10;99.90;;;;;;5051202;28;20586;-76
2022/11/08 04:48:55;;;;;;;1.75;1.65;;;3.70;99.90;;;;;;5034804;28;20021;-74
2022/11/08 04:51:25;;;;;;;1.25;1.15;;;2.80;99.90;;;;;;5034403;28;20028;-74
2022/11/08 04:53:51;;;;;;;9.43;2.50;;;2.80;99.90;;;;;;5053047;28;20033;-74
2022/11/08 04:56:19;;;;;;;4.03;2.83;;;3.10;99.90;;;;;;5052641;28;20054;-77
2022/11/08 04:58:56;;;;;;;7.90;2.67;;;3.10;99.90;;;;;;5052556;28;20020;-77
2022/11/08 05:01:24;;;;;;;1.88;1.45;;;3.30;99.90;;;;;;5052435;28;20017;-77
2022/11/08 05:03:51;;;;;;;5.53;2.28;;;3.10;99.90;;;;;;5034367;28;20159;-76
2022/11/08 05:06:26;;;;;;;4.05;2.20;;;4.20;99.90;;;;;;5052037;28;20021;-76
2022/11/08 05:08:54;;;;;;;1.70;1.60;;;3.20;99.90;;;;;;5052146;28;20024;-74
2022/11/08 05:11:22;;;;;;;4.47;2.25;;;3.70;99.90;;;;;;5052522;28;20028;-75
2022/11/08 05:13:48;;;;;;;2.95;1.88;;;3.40;99.90;;;;;;5034808;28;20032;-75
2022/11/08 05:16:17;;;;;;;2.60;1.80;;;3.80;99.90;;;;;;5034713;28;20048;-75
2022/11/08 05:18:43;;;;;;;2.53;2.05;;;3.30;99.90;;;;;;5052305;28;20036;-75
2022/11/08 05:23:55;;;;;;;4.63;2.88;;;3.90;99.90;;;;;;5052722;28;20040;-75
2022/11/08 05:26:21;;;;;;;2.85;2.40;;;3.40;99.90;;;;;;5051854;28;20024;-75
2022/11/08 05:28:47;;;;;;;3.05;2.17;;;3.70;99.90;;;;;;5052289;28;20021;-75
2022/11/08 05:31:13;;;;;;;4.25;2.72;;;3.30;99.90;;;;;;5052498;28;20029;-75
2022/11/08 05:33:39;;;;;;;3.60;2.10;;;3.40;99.90;;;;;;5033947;28;20071;-75
2022/11/08 05:36:11;;;;;;;3.13;2.50;;;3.40;99.90;;;;;;5034042;28;20025;-75
2022/11/08 05:38:37;;;;;;;4.68;2.53;;;3.50;99.90;;;;;;5052148;28;20435;-75
2022/11/08 05:41:14;;;;;;;3.35;1.90;;;3.60;99.90;;;;;;5051857;28;20074;-74
2022/11/08 05:43:41;;;;;;;3.33;2.55;;;3.70;99.90;;;;;;5033404;28;20212;-76
2022/11/08 05:46:07;;;;;;;3.30;1.92;;;4.20;99.90;;;;;;5034149;28;20083;-75
2022/11/08 05:48:33;;;;;;;2.28;1.63;;;4.60;99.90;;;;;;5033782;28;20029;-74
2022/11/08 05:50:59;;;;;;;1.67;1.50;;;3.50;99.90;;;;;;5034492;28;20078;-75
2022/11/08 05:53:25;;;;;;;2.15;1.85;;;3.40;99.90;;;;;;5052150;28;20029;-74
2022/11/08 05:55:57;;;;;;;3.72;2.58;;;3.30;99.90;;;;;;5033391;28;20064;-77
2022/11/08 05:58:23;;;;;;;4.90;1.92;;;3.50;99.90;;;;;;5033408;28;20037;-77
2022/11/08 06:00:48;;;;;;;5.80;1.80;;;3.30;99.90;;;;;;5051930;28;20486;-75
2022/11/08 06:03:14;;;;;;;2.95;2.22;;;3.10;99.90;;;;;;5051001;28;20067;-75
2022/11/08 06:05:40;;;;;;;2.88;2.10;;;3.20;99.90;;;;;;5033807;28;20485;-76
2022/11/08 06:08:05;;;;;;;2.65;2.03;;;3.10;99.90;;;;;;5051529;28;20029;-77
2022/11/08 06:10:31;;;;;;;4.05;2.22;;;3.10;99.90;;;;;;5051089;28;20384;-77
2022/11/08 06:13:00;;;;;;;2.45;2.25;;;4.20;99.90;;;;;;5051962;28;20063;-76
2022/11/08 06:15:26;;;;;;;2.72;2.38;;;3.70;99.90;;;;;;5051437;28;20029;-74
2022/11/08 06:17:52;;;;;;;10.85;2.80;;;3.50;99.90;;;;;;5050949;28;20074;-75
2022/11/08 06:20:17;;;;;;;3.45;2.47;;;3.30;99.90;;;;;;5051158;28;20037;-76
2022/11/08 06:22:43;;;;;;;7.60;1.55;;;3.30;99.90;;;;;;5051305;28;20029;-75
2022/11/08 06:25:09;;;;;;;1.88;1.77;;;3.20;99.90;;;;;;5050017;28;20082;-77
2022/11/08 06:27:35;;;;;;;5.45;2.28;;;3.10;99.90;;;;;;5051373;28;20017;-74
2022/11/08 06:30:02;;;;;;;4.82;2.60;;;3.20;99.90;;;;;;5051265;28;20367;-74
2022/11/08 06:32:27;;;;;;;2.40;1.90;;;3.20;99.90;;;;;;5051156;28;20033;-75
2022/11/08 06:34:53;;;;;;;5.97;2.20;;;3.30;99.90;;;;;;5033266;28;20041;-75
2022/11/08 06:37:18;;;;;;;2.22;1.95;;;3.60;99.90;;;;;;5050933;28;20497;-76
2022/11/08 06:39:44;;;;;;;9.77;2.40;;;3.30;99.90;;;;;;5022321;28;20067;-76
2022/11/08 06:42:10;;;;;;;3.90;1.58;;;3.70;99.90;;;;;;5016373;28;20090;-76
2022/11/08 06:44:36;;;;;;;1.92;1.77;;;3.30;99.90;;;;;;5029889;28;20280;-75
2022/11/08 06:47:01;;;;;;;2.08;1.90;;;4.50;99.90;;;;;;5028206;28;20036;-75
2022/11/08 06:49:27;;;;;;;3.28;2.42;;;3.10;99.90;;;;;;5040668;28;20040;-77
2022/11/08 06:51:53;;;;;;;1.92;1.73;;;3.10;99.90;;;;;;5039631;28;20044;-77
2022/11/08 06:54:18;;;;;;;6.75;2.40;;;3.40;99.90;;;;;;5030525;28;20067;-74
2022/11/08 06:56:45;;;;;;;2.28;2.08;;;3.80;99.90;;;;;;5030837;28;20108;-77
2022/11/08 06:59:12;;;;;;;6.05;1.58;;;3.60;99.90;;;;;;5031823;28;20030;-78
2022/11/08 07:01:38;;;;;;;3.38;2.00;;;3.50;99.90;;;;;;5031580;28;20031;-78
2022/11/08 07:04:04;;;;;;;1.80;1.48;;;3.50;99.90;;;;;;5015477;28;20021;-78
2022/11/08 07:06:30;;;;;;;1.98;1.25;;;3.50;99.90;;;;;;5035413;28;20051;-78
2022/11/08 07:08:55;;;;;;;2.72;1.80;;;3.50;99.90;;;;;;5034809;28;20025;-78
2022/11/08 07:11:22;;;;;;;5.00;2.30;;;3.60;99.90;;;;;;5033695;28;20438;-78
2022/11/08 07:13:47;;;;;;;1.50;1.38;;;3.70;99.90;;;;;;5033607;28;20113;-78
2022/11/08 07:16:13;;;;;;;3.25;2.47;;;3.90;99.90;;;;;;5016148;28;20108;-78
2022/11/08 07:18:39;;;;;;;2.67;1.95;;;3.90;99.90;;;;;;5033314;28;20030;-79
2022/11/08 07:21:05;;;;;;;2.60;2.17;;;4.80;99.90;;;;;;5033912;28;20032;-78
2022/11/08 07:23:31;;;;;;;2.55;2.35;;;5.40;99.90;;;;;;5015540;28;20112;-78
2022/11/08 07:26:00;;;;;;;1.67;1.58;;;4.20;99.90;;;;;;5033473;28;20025;-79
2022/11/08 07:28:26;;;;;;;4.32;2.40;;;5.40;99.90;;;;;;5033173;28;20025;-78
2022/11/08 07:31:00;;;;;;;3.28;1.85;;;4.30;99.90;;;;;;5032910;28;20436;-78
2022/11/08 07:33:26;;;;;;;6.72;3.60;;;6.10;99.90;;;;;;5032490;28;20065;-77
2022/11/08 07:35:52;;;;;;;2.15;1.98;;;4.70;99.90;;;;;;5015241;28;20033;-78
2022/11/08 07:38:18;;;;;;;4.15;2.33;;;4.80;99.90;;;;;;5032819;28;20470;-78
2022/11/08 07:40:44;;;;;;;2.75;1.70;;;5.80;99.90;;;;;;5032787;28;20298;-78
2022/11/08 07:43:09;;;;;;;2.40;2.10;;;5.00;99.90;;;;;;5032948;28;20029;-78
2022/11/08 07:45:35;;;;;;;3.97;2.75;;;5.80;99.90;;;;;;5033024;28;20104;-78
2022/11/08 07:48:07;;;;;;;1.98;1.65;;;5.10;99.90;;;;;;5014455;28;20024;-79
2022/11/08 07:50:33;;;;;;;3.17;1.67;;;5.20;99.90;;;;;;5032558;28;20068;-78
2022/11/08 07:52:58;;;;;;;4.90;2.30;;;5.40;99.90;;;;;;5032410;28;20025;-78
2022/11/08 07:55:25;;;;;;;2.95;2.65;;;5.60;99.90;;;;;;5030907;28;20024;-78
2022/11/08 07:57:55;;;;;;;3.75;2.20;;;5.80;99.90;;;;;;5032470;28;20021;-78
2022/11/08 08:00:21;;;;;;;2.63;2.25;;;5.80;99.90;;;;;;5031993;28;20084;-78
2022/11/08 08:02:46;;;;;;;3.22;2.17;;;6.10;99.90;;;;;;5031875;28;20041;-78
2022/11/08 08:05:12;;;;;;;2.90;1.77;;;6.30;99.90;;;;;;5032062;28;20025;-78
2022/11/08 08:07:38;;;;;;;2.78;1.88;;;6.50;99.90;;;;;;5031988;28;20032;-78
2022/11/08 08:10:04;;;;;;;4.55;2.40;;;6.60;99.90;;;;;;5031928;28;20543;-79
2022/11/08 08:12:30;;;;;;;5.00;2.05;;;6.70;99.90;;;;;;5031846;28;20091;-78
2022/11/08 08:14:56;;;;;;;3.78;2.33;;;;;;;;;;5031625;28;20025;-78
2022/11/08 08:17:21;;;;;;;2.33;2.20;;;6.90;99.90;;;;;;5031424;28;20029;-78
2022/11/08 08:19:47;;;;;;;3.83;1.90;;;6.90;99.90;;;;;;5013821;28;20034;-78
2022/11/08 08:22:13;;;;;;;2.58;2.00;;;7.20;99.90;;;;;;5031852;28;20029;-78
2022/11/08 08:24:38;;;;;;;3.22;1.88;;;7.20;99.90;;;;;;5013651;28;20079;-79
2022/11/08 08:27:04;;;;;;;5.43;2.17;;;7.40;99.90;;;;;;5031598;28;20026;-78
2022/11/08 08:29:30;;;;;;;2.55;1.73;;;7.60;99.90;;;;;;5031709;28;20036;-78
2022/11/08 08:31:56;;;;;;;2.65;1.98;;;;;;;;;;5013579;28;20490;-78
2022/11/08 08:34:21;;;;;;;2.88;2.47;;;7.80;99.90;;;;;;5031361;28;20061;-78
2022/11/08 08:36:47;;;;;;;9.10;2.95;;;8.10;99.90;;;;;;5031896;28;20386;-78
2022/11/08 08:39:13;;;;;;;6.72;1.92;;;8.20;99.90;;;;;;5031471;28;20080;-78
2022/11/08 08:41:48;;;;;;;3.50;2.20;;;8.30;99.90;;;;;;5031304;28;20025;-78
2022/11/08 08:44:13;;;;;;;2.28;2.08;;;8.40;99.90;;;;;;5031296;28;20040;-79
2022/11/08 08:46:42;;;;;;;1.95;1.83;;;8.50;99.90;;;;;;5031088;28;20017;-78
2022/11/08 08:49:10;;;;;;;2.35;2.15;;;8.60;99.90;;;;;;5013038;28;20021;-79
2022/11/08 08:51:38;;;;;;;2.55;2.35;;;8.60;99.90;;;;;;5031103;28;20026;-79
2022/11/08 08:54:04;;;;;;;3.38;2.10;;;8.70;99.90;;;;;;5031189;28;20052;-78
2022/11/08 08:56:30;;;;;;;3.58;1.95;;;8.60;99.90;;;;;;5031027;28;20522;-78
2022/11/08 08:58:59;;;;;;;1.83;1.73;;;8.60;99.90;;;;;;5031031;28;20039;-78
2022/11/08 09:01:25;;;;;;;2.65;2.03;;;8.60;99.90;;;;;;5030984;28;20022;-79
2022/11/08 09:03:51;;;;;;;3.22;2.05;;;8.60;99.90;;;;;;5030721;28;20039;-78
2022/11/08 09:06:16;;;;;;;3.30;2.25;;;8.70;99.90;;;;;;5031080;28;20045;-78
2022/11/08 09:08:42;;;;;;;2.00;1.83;;;8.90;99.90;;;;;;5030901;28;20378;-78
2022/11/08 09:11:08;;;;;;;2.63;2.00;;;8.90;99.90;;;;;;5030949;28;20036;-78
2022/11/08 09:13:34;;;;;;;6.25;1.83;;;8.80;99.90;;;;;;5030662;28;20034;-78
2022/11/08 09:16:01;;;;;;;4.32;2.47;;;8.90;99.90;;;;;;5029502;28;20029;-78
2022/11/08 09:18:28;;;;;;;2.15;1.95;;;9.00;99.90;;;;;;5030831;28;20021;-79
2022/11/08 09:20:57;;;;;;;2.30;2.10;;;9.00;99.90;;;;;;5030185;28;20401;-78
2022/11/08 09:23:23;;;;;;;2.17;1.88;;;8.90;99.90;;;;;;5029731;28;20032;-77
2022/11/08 09:25:49;;;;;;;2.45;1.58;;;8.90;99.90;;;;;;5030613;28;20038;-78
2022/11/08 09:28:15;;;;;;;1.98;1.65;;;8.70;99.90;;;;;;5011949;28;20032;-78
2022/11/08 09:30:41;;;;;;;5.35;1.40;;;;;;;;;;5029213;28;20029;-78
2022/11/08 09:33:06;;;;;;;1.83;1.55;;;8.40;99.90;;;;;;5028626;28;20029;-78
2022/11/08 09:35:32;;;;;;;1.50;1.38;;;8.30;99.90;;;;;;5028510;28;20046;-78
2022/11/08 09:37:58;;;;;;;1.77;1.45;;;8.30;99.90;;;;;;5034497;28;20031;-79
2022/11/08 09:40:39;;;;;;;2.17;1.88;;;8.30;99.90;;;;;;5029822;28;20044;-79
2022/11/08 09:43:36;;;;;;;4.57;1.38;;;8.40;99.90;;;;;;5041535;28;20022;-79
2022/11/08 09:46:01;;;;;;;1.58;1.33;;;8.70;99.90;;;;;;5009683;28;20525;-79
2022/11/08 09:48:40;;;;;;;2.63;1.70;;;9.20;99.90;;;;;;5026765;28;20034;-79
2022/11/08 09:51:11;;;;;;;1.77;1.55;;;9.20;99.90;;;;;;5008717;28;20064;-79
2022/11/08 09:53:43;;;;;;;2.60;2.03;;;9.50;99.90;;;;;;5027218;28;20033;-80
2022/11/08 09:56:23;;;;;;;4.60;1.75;;;9.70;99.90;;;;;;5023143;28;20025;-80
2022/11/08 09:59:00;;;;;;;5.03;2.60;;;9.90;99.90;;;;;;5016999;28;20064;-79
2022/11/08 10:01:30;;;;;;;11.10;6.15;;;10.10;99.90;;;;;;5026269;28;20124;-79
2022/11/08 10:04:18;;;;;;;12.10;5.85;;;10.20;99.90;;;;;;5027517;28;20061;-79
2022/11/08 10:06:44;;;;;;;9.57;4.85;;;;;;;;;;5009525;28;20021;-80
2022/11/08 10:09:16;;;;;;;10.15;4.43;;;10.40;99.90;;;;;;5009592;28;20033;-79
2022/11/08 10:12:08;;;;;;;9.30;3.88;;;10.60;99.90;;;;;;5027339;28;20500;-79
2022/11/08 10:14:47;;;;;;;9.35;4.93;;;10.70;99.90;;;;;;4990753;28;20505;-79
2022/11/08 10:17:18;;;;;;;8.68;4.38;;;10.70;99.90;;;;;;5027149;28;20063;-80
2022/11/08 10:19:58;;;;;;;7.40;3.40;;;10.80;99.90;;;;;;5009477;28;20569;-80
2022/11/08 10:22:42;;;;;;;3.22;2.80;;;10.90;99.90;;;;;;5009848;28;20033;-80
2022/11/08 10:25:31;;;;;;;5.00;2.90;;;10.90;99.90;;;;;;5010647;28;20525;-78
2022/11/08 10:28:00;;;;;;;6.82;2.70;;;11.00;99.90;;;;;;5027731;28;20587;-81
2022/11/08 10:30:41;;;;;;;2.65;2.45;;;10.90;99.90;;;;;;5028648;28;20029;-80
2022/11/08 10:33:19;;;;;;;7.32;3.50;;;11.00;99.90;;;;;;5009731;28;20403;-79
2022/11/08 10:36:07;;;;;;;4.03;2.65;;;11.00;99.90;;;;;;5027731;28;20073;-79
2022/11/08 10:38:43;;;;;;;10.45;4.43;;;11.10;99.90;;;;;;5030577;28;20475;-80
2022/11/08 10:41:18;;;;;;;8.10;4.13;;;11.10;99.90;;;;;;5014204;28;20029;-79
2022/11/08 10:44:01;;;;;;;7.57;4.85;;;11.40;99.90;;;;;;5013742;28;20033;-79
2022/11/08 10:46:41;;;;;;;3.65;2.50;;;11.50;99.90;;;;;;5030244;28;20041;-79
2022/11/08 10:49:20;;;;;;;3.42;2.63;;;11.80;99.90;;;;;;5012238;28;20033;-81
2022/11/08 10:51:48;;;;;;;;;;;11.80;99.90;;;;;;5017525;28;20496;-79
2022/11/08 10:54:41;;;;;;;5.95;3.30;;;12.10;99.90;;;;;;5031436;28;20399;-79
2022/11/08 10:57:09;;;;;;;8.80;4.63;;;12.40;99.90;;;;;;5030727;28;20216;-80
2022/11/08 10:59:35;;;;;;;8.18;3.13;;;12.60;99.90;;;;;;5012262;28;20405;-78
2022/11/08 11:02:02;;;;;;;5.53;3.22;;;13.00;99.90;;;;;;5029334;28;20505;-79
2022/11/08 11:04:30;;;;;;;3.55;2.30;;;13.10;99.90;;;;;;5029806;28;20045;-79
2022/11/08 11:07:23;;;;;;;3.28;2.58;;;13.50;99.90;;;;;;5029505;28;20473;-79
2022/11/08 11:09:49;;;;;;;4.60;2.10;;;13.60;99.90;;;;;;5029436;28;20477;-79
2022/11/08 11:12:15;;;;;;;3.38;2.42;;;;;;;;;;5011731;28;20030;-77
2022/11/08 11:14:40;;;;;;;6.88;3.45;;;13.90;99.90;;;;;;5028379;28;20037;-78
2022/11/08 11:17:22;;;;;;;3.17;2.08;;;13.80;99.90;;;;;;5029309;28;20097;-78
2022/11/08 11:19:54;;;;;;;2.40;1.80;;;13.80;99.90;;;;;;5029885;28;20052;-78
2022/11/08 11:22:31;;;;;;;3.13;1.80;;;13.90;99.90;;;;;;5029236;28;20017;-78
2022/11/08 11:25:06;;;;;;;3.45;2.42;;;13.90;99.90;;;;;;5011239;28;20391;-78
2022/11/08 11:27:36;;;;;;;4.90;2.70;;;13.90;99.90;;;;;;5027973;28;20033;-78
2022/11/08 11:30:22;;;;;;;;;;;13.70;99.90;;;;;;5029917;28;20021;-77
2022/11/08 11:33:07;;;;;;;2.60;1.25;;;13.60;99.90;;;;;;5041643;28;19911;-77
2022/11/08 11:35:45;;;;;;;2.83;1.75;;;13.40;99.90;;;;;;5047204;28;20601;-77
2022/11/08 11:38:27;;;;;;;1.67;1.55;;;13.00;99.90;;;;;;5029381;28;20424;-76
2022/11/08 11:40:58;;;;;;;2.30;1.52;;;12.90;99.90;;;;;;5029245;28;20432;-77
2022/11/08 11:43:33;;;;;;;1.70;1.60;;;13.00;99.90;;;;;;5047252;28;20029;-77
2022/11/08 11:46:16;;;;;;;2.00;1.80;;;13.00;99.90;;;;;;5047917;28;20035;-77
2022/11/08 11:48:46;;;;;;;2.30;2.05;;;13.20;99.90;;;;;;5029646;28;20116;-77
2022/11/08 11:51:12;;;;;;;3.88;2.30;;;13.30;99.90;;;;;;5048221;28;20100;-77
2022/11/08 11:53:38;;;;;;;2.53;2.17;;;13.40;99.90;;;;;;5048804;28;20025;-77
2022/11/08 11:56:22;;;;;;;3.25;1.67;;;13.60;99.90;;;;;;5047890;28;20079;-78
2022/11/08 11:59:02;;;;;;;2.63;1.70;;;13.70;99.90;;;;;;5048513;28;20029;-77
2022/11/08 12:02:02;;;;;;;5.60;1.55;;;13.70;99.90;;;;;;5048921;28;20140;-78
2022/11/08 12:05:06;;;;;;;2.22;1.95;;;13.80;99.90;;;;;;5048458;28;20043;-78
2022/11/08 12:07:37;;;;;;;1.58;1.25;;;13.90;99.90;;;;;;5005469;28;20030;-77
2022/11/08 12:10:15;;;;;;;2.38;1.85;;;14.10;99.90;;;;;;5006714;28;20032;-78
2022/11/08 12:13:07;;;;;;;4.45;1.55;;;14.10;99.90;;;;;;5014655;28;20053;-78
2022/11/08 12:15:50;;;;;;;3.53;1.90;;;14.20;99.90;;;;;;5030329;28;20073;-79
2022/11/08 12:18:24;;;;;;;2.42;1.55;;;14.10;99.90;;;;;;5028218;28;20029;-78
2022/11/08 12:21:28;;;;;;;2.05;1.58;;;14.10;99.90;;;;;;5047069;28;20071;-78
2022/11/08 12:24:12;;;;;;;1.58;1.42;;;14.30;99.90;;;;;;4997061;28;20080;-78
2022/11/08 12:26:49;;;;;;;2.10;1.63;;;14.50;99.90;;;;;;5030148;28;20547;-79
2022/11/08 12:29:48;;;;;;;3.60;1.65;;;14.50;99.90;;;;;;5029786;28;20481;-78
2022/11/08 12:32:21;;;;;;;2.40;1.50;;;14.50;99.90;;;;;;5037637;28;20155;-78
2022/11/08 12:35:10;;;;;;;3.67;1.73;;;14.70;99.90;;;;;;5009863;28;20470;-78
2022/11/08 12:37:45;;;;;;;1.65;1.55;;;15.00;99.90;;;;;;5028155;28;20025;-79
2022/11/08 12:40:53;;;;;;;2.15;1.73;;;15.40;99.90;;;;;;5027873;28;20065;-79
2022/11/08 12:43:32;;;;;;;2.13;1.55;;;16.20;98.80;;;;;;5023749;28;20386;-78
2022/11/08 12:46:11;;;;;;;1.85;1.10;;;17.60;92.40;;;;;;5028353;28;20060;-78
2022/11/08 12:48:59;;;;;;;1.63;1.50;;;18.10;88.70;;;;;;5027323;28;20064;-77
2022/11/08 12:51:28;;;;;;;2.75;1.10;;;18.90;81.10;;;;;;5027854;28;20049;-79
2022/11/08 12:54:30;;;;;;;1.77;1.33;;;19.60;77.60;;;;;;5027523;28;20025;-77
2022/11/08 12:57:01;;;;;;;24.75;1.70;;;21.00;70.30;;;;;;5027866;28;20057;-78
2022/11/08 12:59:32;;;;;;;3.20;1.70;;;21.60;65.30;;;;;;5009765;28;20041;-78
2022/11/08 13:02:02;;;;;;;2.70;1.90;;;21.40;66.20;;;;;;5026214;28;20091;-78
2022/11/08 13:04:34;;;;;;;3.17;1.52;;;21.30;65.70;;;;;;5027300;28;20413;-80
2022/11/08 13:07:11;;;;;;;2.47;1.90;;;21.20;64.10;;;;;;5027469;28;20068;-78
2022/11/08 13:10:04;;;;;;;3.53;1.42;;;21.20;64.70;;;;;;5027752;28;20049;-78
2022/11/08 13:12:53;;;;;;;1.45;1.23;;;20.90;64.80;;;;;;5027004;28;20025;-78
2022/11/08 13:15:25;;;;;;;2.55;1.55;;;20.70;65.50;;;;;;5027176;28;20474;-78
2022/11/08 13:18:06;;;;;;;3.03;1.33;;;21.20;64.80;;;;;;5026860;28;20429;-78
2022/11/08 13:20:48;;;;;;;3.75;1.55;;;;;;;;;;5026925;28;20135;-79
2022/11/08 13:23:23;;;;;;;2.33;1.40;;;21.00;64.60;;;;;;5027300;28;20036;-79
2022/11/08 13:25:51;;;;;;;1.33;1.08;;;20.00;67.80;;;;;;5026903;28;20032;-80
2022/11/08 13:28:38;;;;;;;1.75;1.30;;;18.80;70.80;;;;;;5027128;28;20023;-78
2022/11/08 13:31:19;;;;;;;2.38;1.65;;;18.80;71.30;;;;;;5026971;28;20028;-80
2022/11/08 13:33:54;;;;;;;2.95;1.52;;;17.60;73.90;;;;;;5026457;28;20052;-80